Time;durP1;ratioP1;P1;durP2;ratioP2;P2;SDS_P1;SDS_P2;PMS_P1;PMS_P2;Temp;Humidity;BMP_temperature;BMP_pressure;BME280_temperature;BME280_humidity;BME280_pressure;Samples;Min_cycle;Max_cycle;Signal;HPM_P1;HPM_P2
2023/09/21 00:01:34;;;;;;;2.22;1.13;;;19.90;98.50;;;20.26;98.19;99712.13;5225695;28;20516;-50
2023/09/21 00:04:08;;;;;;;1.67;1.08;;;19.90;98.60;;;20.21;98.43;99703.41;5208516;28;20057;-49
2023/09/21 00:06:40;;;;;;;1.58;1.10;;;19.80;98.70;;;20.17;98.65;99713.19;5227146;28;20141;-49
2023/09/21 00:09:14;;;;;;;1.80;1.10;;;19.80;98.80;;;20.16;98.84;99715.88;5217893;28;20053;-50
2023/09/21 00:11:47;;;;;;;3.17;1.10;;;19.80;98.90;;;20.13;99.06;99718.59;5223588;28;20045;-52
2023/09/21 00:14:19;;;;;;;2.53;1.38;;;19.70;99.00;;;20.08;99.24;99713.38;5238074;28;20047;-50
2023/09/21 00:16:53;;;;;;;2.80;1.40;;;19.70;99.10;;;20.05;99.69;99708.16;5234597;28;20073;-49
2023/09/21 00:19:27;;;;;;;2.42;1.40;;;19.70;99.10;;;20.01;99.79;99707.34;5225281;28;20071;-50
2023/09/21 00:22:00;;;;;;;2.15;1.42;;;19.60;99.20;;;19.98;100.00;99695.97;5221549;28;20080;-50
2023/09/21 00:24:32;;;;;;;2.78;1.38;;;19.60;99.30;;;19.94;100.00;99694.28;5239430;28;20052;-50
2023/09/21 00:27:07;;;;;;;2.67;1.35;;;19.60;99.50;;;19.91;100.00;99700.53;5225107;28;20530;-51
2023/09/21 00:29:39;;;;;;;2.40;1.10;;;19.50;99.60;;;19.85;100.00;99689.19;5225144;28;20094;-50
2023/09/21 00:32:12;;;;;;;3.15;1.48;;;19.50;99.70;;;19.78;100.00;99673.47;5225401;28;20049;-50
2023/09/21 00:34:51;;;;;;;2.58;1.33;;;19.40;99.70;;;19.77;100.00;99665.56;5225120;28;20036;-50
2023/09/21 00:37:24;;;;;;;2.28;1.35;;;19.40;99.80;;;19.75;100.00;99665.56;5214377;28;20052;-50
2023/09/21 00:39:57;;;;;;;2.63;1.23;;;19.40;99.90;;;19.69;100.00;99660.44;5218840;28;20120;-50
2023/09/21 00:42:29;;;;;;;2.03;1.10;;;19.40;99.90;;;19.68;100.00;99663.97;5224776;28;20068;-51
2023/09/21 00:45:02;;;;;;;2.42;1.20;;;19.30;99.90;;;19.66;100.00;99652.56;5220408;28;20042;-51
2023/09/21 00:47:34;;;;;;;2.25;1.20;;;19.30;99.90;;;19.66;100.00;99647.28;5213608;28;20048;-54
2023/09/21 00:50:11;;;;;;;2.85;1.50;;;19.30;99.90;;;19.67;100.00;99642.84;5231840;28;20049;-52
2023/09/21 00:52:51;;;;;;;2.00;1.20;;;19.30;99.90;;;19.65;100.00;99645.53;5238152;28;20052;-53
2023/09/21 00:55:30;;;;;;;3.30;1.30;;;19.30;99.90;;;19.63;100.00;99636.78;5229652;28;21011;-53
2023/09/21 00:58:05;;;;;;;2.25;1.40;;;19.30;99.80;;;19.65;100.00;99639.38;5230426;28;20083;-53
2023/09/21 01:00:39;;;;;;;4.32;1.50;;;19.30;99.80;;;19.67;100.00;99638.44;5221862;28;20041;-53
2023/09/21 01:03:15;;;;;;;4.05;1.55;;;19.30;99.80;;;19.67;100.00;99630.50;5231696;28;20091;-52
2023/09/21 01:05:50;;;;;;;3.13;1.60;;;19.30;99.70;;;19.66;100.00;99618.19;5230645;28;20049;-52
2023/09/21 01:08:28;;;;;;;1.70;1.25;;;19.30;99.70;;;19.66;100.00;99618.19;5231826;28;20048;-53
2023/09/21 01:11:07;;;;;;;2.00;1.35;;;19.30;99.70;;;19.69;100.00;99615.50;5213941;28;20478;-52
2023/09/21 01:13:42;;;;;;;2.90;1.50;;;19.40;99.60;;;19.74;99.93;99608.31;5220022;28;20160;-51
2023/09/21 01:16:15;;;;;;;2.22;1.10;;;19.40;99.60;;;19.75;99.70;99610.06;5229504;28;20053;-52
2023/09/21 01:18:52;;;;;;;1.95;1.30;;;19.40;99.50;;;19.75;99.58;99609.19;5223568;28;20052;-53
2023/09/21 01:21:36;;;;;;;2.28;1.13;;;19.40;99.40;;;19.76;99.49;99611.81;5229369;28;20065;-53
2023/09/21 01:24:12;;;;;;;2.22;1.30;;;19.40;99.40;;;19.79;99.28;99603.81;5212464;28;20131;-53
2023/09/21 01:26:44;;;;;;;3.00;1.50;;;19.40;99.30;;;19.78;98.95;99602.06;5236662;28;20049;-53
2023/09/21 01:29:17;;;;;;;2.15;1.00;;;19.40;99.20;;;19.79;98.94;99598.53;5232323;28;20144;-53
2023/09/21 01:31:49;;;;;;;2.75;1.17;;;19.40;99.20;;;19.81;98.84;99594.97;5222612;28;20427;-52
2023/09/21 01:34:22;;;;;;;2.03;1.20;;;19.40;99.10;;;19.82;98.84;99599.34;5231509;28;20130;-53
2023/09/21 01:36:55;;;;;;;2.30;1.13;;;19.40;99.10;;;19.82;98.86;99589.63;5221891;28;20045;-54
2023/09/21 01:39:29;;;;;;;2.63;1.23;;;19.50;99.10;;;19.84;98.73;99592.28;5232021;28;20053;-54
2023/09/21 01:42:02;;;;;;;2.03;1.23;;;19.50;99.10;;;19.84;98.42;99587.00;5225949;28;20524;-53
2023/09/21 01:44:34;;;;;;;1.98;1.23;;;19.50;99.00;;;19.84;98.31;99587.84;5213211;28;20037;-53
2023/09/21 01:47:08;;;;;;;2.33;1.23;;;19.50;99.00;;;19.85;98.12;99580.78;5232157;28;20049;-53
2023/09/21 01:49:44;;;;;;;2.50;1.23;;;19.50;98.90;;;19.86;98.16;99577.25;5227634;28;20055;-54
2023/09/21 01:52:18;;;;;;;1.95;1.00;;;19.50;98.90;;;19.85;98.07;99575.50;5230077;28;20136;-53
2023/09/21 01:54:52;;;;;;;2.60;1.30;;;19.50;98.80;;;19.84;98.02;99571.13;5231857;28;20040;-52
2023/09/21 01:57:24;;;;;;;2.90;1.23;;;19.50;98.80;;;19.84;98.14;99576.41;5232194;28;20538;-53
2023/09/21 01:59:56;;;;;;;2.92;1.13;;;19.50;98.80;;;19.81;98.08;99568.53;5222068;28;20045;-53
2023/09/21 02:02:29;;;;;;;2.58;1.30;;;19.50;98.80;;;19.81;97.89;99568.53;5231306;28;20049;-53
2023/09/21 02:05:03;;;;;;;2.15;1.27;;;19.50;98.70;;;19.81;97.78;99563.25;5210414;28;20535;-53
2023/09/21 02:07:36;;;;;;;1.77;1.20;;;19.40;98.70;;;19.82;97.90;99567.63;5232944;28;20057;-54
2023/09/21 02:10:11;;;;;;;3.33;1.27;;;19.40;98.70;;;19.80;97.86;99559.72;5236219;28;20091;-53
2023/09/21 02:12:56;;;;;;;1.88;1.05;;;19.40;98.70;;;19.79;97.84;99558.88;5225891;28;20049;-52
2023/09/21 02:15:30;;;;;;;1.83;1.15;;;19.40;98.70;;;19.78;97.78;99557.13;5236353;28;20516;-54
2023/09/21 02:18:04;;;;;;;2.22;1.10;;;19.40;98.70;;;19.77;97.66;99554.53;5214820;28;20056;-52
2023/09/21 02:20:44;;;;;;;1.73;1.02;;;19.40;98.70;;;19.76;97.80;99543.09;5220306;28;20065;-53
2023/09/21 02:23:17;;;;;;;2.47;1.27;;;19.40;98.70;;;19.74;97.97;99547.50;5235665;28;20139;-53
2023/09/21 02:25:52;;;;;;;1.75;1.05;;;19.40;98.70;;;19.73;97.78;99537.84;5225665;28;20397;-53
2023/09/21 02:28:24;;;;;;;2.25;0.90;;;19.40;98.70;;;19.72;97.86;99544.03;5232840;28;20475;-53
2023/09/21 02:30:57;;;;;;;2.58;1.40;;;19.40;98.70;;;19.73;97.99;99548.41;5235890;28;20140;-53
2023/09/21 02:33:31;;;;;;;2.03;1.10;;;19.40;98.70;;;19.71;97.85;99530.88;5231327;28;20045;-53
2023/09/21 02:36:03;;;;;;;1.95;1.20;;;19.30;98.70;;;19.70;97.95;99531.78;5235711;28;20090;-53
2023/09/21 02:38:36;;;;;;;1.88;1.20;;;19.30;98.70;;;19.67;97.90;99527.41;5228398;28;20052;-53
2023/09/21 02:41:10;;;;;;;3.38;1.30;;;19.40;98.80;;;19.65;97.95;99526.59;5235523;28;20068;-52
2023/09/21 02:43:42;;;;;;;1.73;1.02;;;19.30;98.70;;;19.65;97.99;99523.94;5228347;28;20043;-52
2023/09/21 02:46:15;;;;;;;3.08;1.13;;;19.30;98.80;;;19.65;98.06;99523.94;5225510;28;20037;-53
2023/09/21 02:48:47;;;;;;;1.80;1.00;;;19.30;98.80;;;19.65;98.03;99526.59;5232387;28;20462;-53
2023/09/21 02:51:20;;;;;;;2.22;1.35;;;19.30;98.80;;;19.67;97.86;99514.19;5222231;28;20096;-53
2023/09/21 02:53:58;;;;;;;3.17;1.48;;;19.30;98.70;;;19.67;97.77;99511.56;5228394;28;20044;-53
2023/09/21 02:56:33;;;;;;;1.58;1.20;;;19.30;98.70;;;19.68;97.70;99504.50;5225157;28;20045;-54
2023/09/21 02:59:07;;;;;;;1.50;0.93;;;19.30;98.70;;;19.68;97.60;99502.72;5225345;28;20071;-53
2023/09/21 03:01:40;;;;;;;1.77;1.00;;;19.30;98.60;;;19.66;97.52;99499.25;5236407;28;20382;-53
2023/09/21 03:04:13;;;;;;;2.08;1.02;;;19.30;98.60;;;19.68;97.44;99501.84;5223610;28;20554;-53
2023/09/21 03:06:46;;;;;;;1.88;1.00;;;19.30;98.60;;;19.66;96.94;99509.81;5220213;28;20053;-54
2023/09/21 03:09:20;;;;;;;1.55;1.00;;;19.30;98.50;;;19.68;97.17;99504.50;5225345;28;20041;-53
2023/09/21 03:11:53;;;;;;;1.30;1.00;;;19.30;98.50;;;19.70;97.04;99506.22;5238508;28;20139;-52
2023/09/21 03:14:26;;;;;;;1.85;1.10;;;19.40;98.50;;;19.68;97.03;99501.84;5219815;28;20138;-53
2023/09/21 03:16:58;;;;;;;2.13;1.15;;;19.30;98.50;;;19.67;97.05;99500.09;5227851;28;20044;-52
2023/09/21 03:19:31;;;;;;;2.45;1.25;;;19.30;98.50;;;19.66;96.94;99488.66;5220677;28;20045;-53
2023/09/21 03:22:04;;;;;;;2.97;1.15;;;19.30;98.40;;;19.67;97.23;99490.41;5220968;28;20485;-53
2023/09/21 03:24:39;;;;;;;2.15;1.23;;;19.30;98.50;;;19.66;97.04;99478.09;5230544;28;20393;-52
2023/09/21 03:27:14;;;;;;;2.97;1.20;;;19.30;98.50;;;19.64;97.16;99474.63;5223997;28;20056;-53
2023/09/21 03:29:47;;;;;;;1.67;1.15;;;19.30;98.50;;;19.64;97.42;99471.97;5236387;28;20045;-53
2023/09/21 03:32:19;;;;;;;1.33;1.15;;;19.30;98.50;;;19.66;97.21;99469.28;5239254;28;20040;-53
2023/09/21 03:34:52;;;;;;;3.05;1.60;;;19.30;98.50;;;19.66;97.19;99462.22;5233275;28;20037;-53
2023/09/21 03:37:26;;;;;;;2.58;1.00;;;19.30;98.50;;;19.68;97.19;99464.84;5221787;28;20535;-52
2023/09/21 03:39:58;;;;;;;2.72;1.20;;;19.30;98.50;;;19.70;97.23;99463.91;5220956;28;20377;-53
2023/09/21 03:42:32;;;;;;;2.80;1.38;;;19.40;98.40;;;19.72;96.94;99459.44;5224554;28;20045;-54
2023/09/21 03:45:11;;;;;;;1.17;0.93;;;19.40;98.40;;;19.72;96.67;99456.81;5219754;28;20046;-53
2023/09/21 03:47:44;;;;;;;2.85;1.27;;;19.40;98.30;;;19.74;96.83;99460.28;5237316;28;20049;-52
2023/09/21 03:50:17;;;;;;;2.90;1.17;;;19.40;98.30;;;19.82;96.55;99456.56;5224582;28;20092;-53
2023/09/21 03:52:50;;;;;;;2.47;1.20;;;19.40;98.30;;;19.81;96.53;99449.56;5223828;28;20146;-54
2023/09/21 03:55:23;;;;;;;2.22;1.27;;;19.50;98.20;;;19.85;96.76;99452.09;5221392;28;20365;-53
2023/09/21 03:57:57;;;;;;;1.70;1.15;;;19.50;98.30;;;19.85;96.60;99445.94;5240067;28;20048;-52
2023/09/21 04:00:36;;;;;;;3.05;1.35;;;19.50;98.20;;;19.85;96.43;99440.66;5224231;28;20037;-54
2023/09/21 04:03:10;;;;;;;2.47;1.20;;;19.50;98.20;;;19.82;96.41;99446.00;5231082;28;20049;-53
2023/09/21 04:05:47;;;;;;;3.10;1.27;;;19.50;98.20;;;19.81;96.44;99438.97;5233786;28;20045;-54
2023/09/21 04:08:19;;;;;;;1.92;1.20;;;19.50;98.20;;;19.78;96.81;99438.16;5224036;28;20033;-53
2023/09/21 04:10:52;;;;;;;3.15;1.52;;;19.50;98.20;;;19.79;96.74;99429.31;5223990;28;20045;-53
2023/09/21 04:13:26;;;;;;;1.60;1.13;;;19.40;98.30;;;19.77;96.81;99423.19;5223651;28;20053;-52
2023/09/21 04:15:58;;;;;;;1.83;1.00;;;19.40;98.30;;;19.76;96.81;99424.13;5220078;28;20087;-53
2023/09/21 04:18:31;;;;;;;2.80;1.08;;;19.40;98.30;;;19.73;97.09;99418.88;5220804;28;20041;-53
2023/09/21 04:21:10;;;;;;;2.00;1.30;;;19.40;98.30;;;19.72;97.21;99414.50;5225260;28;20564;-53
2023/09/21 04:23:43;;;;;;;2.55;1.40;;;19.40;98.40;;;19.69;97.36;99419.88;5218522;28;20084;-53
2023/09/21 04:26:15;;;;;;;2.33;1.00;;;19.40;98.40;;;19.70;97.51;99432.19;5222179;28;20041;-53
2023/09/21 04:28:50;;;;;;;3.63;1.33;;;19.40;98.50;;;19.70;97.50;99432.19;5235325;28;20073;-52
2023/09/21 04:31:23;;;;;;;1.38;1.05;;;19.40;98.50;;;19.71;97.58;99448.91;5221138;28;20045;-53
2023/09/21 04:33:55;;;;;;;2.45;1.02;;;19.40;98.60;;;19.69;97.69;99445.41;5222451;28;20052;-52
2023/09/21 04:36:29;;;;;;;1.67;1.02;;;19.40;98.60;;;19.70;97.92;99448.06;5223509;28;20049;-53
2023/09/21 04:39:02;;;;;;;2.03;1.00;;;19.30;98.70;;;19.69;97.83;99446.31;5236134;28;20036;-54
2023/09/21 04:41:35;;;;;;;1.65;1.02;;;19.30;98.70;;;19.65;98.49;99434.06;5216572;28;20049;-52
2023/09/21 04:44:09;;;;;;;1.88;1.02;;;19.30;98.90;;;19.62;98.63;99439.41;5236182;28;20435;-53
2023/09/21 04:46:43;;;;;;;2.10;1.13;;;19.30;99.00;;;19.58;98.59;99443.06;5229470;28;20412;-52
2023/09/21 04:49:15;;;;;;;2.78;1.25;;;19.20;99.00;;;19.55;98.61;99423.69;5221833;28;20064;-54
2023/09/21 04:51:48;;;;;;;2.85;1.70;;;19.20;99.00;;;19.52;98.87;99422.00;5231161;28;20125;-53
2023/09/21 04:54:21;;;;;;;3.42;1.40;;;19.20;99.00;;;19.51;98.96;99421.16;5222675;28;20492;-53
2023/09/21 04:56:56;;;;;;;2.10;1.35;;;19.20;99.10;;;19.49;99.02;99422.94;5226070;28;20167;-53
2023/09/21 04:59:29;;;;;;;1.60;1.13;;;19.20;99.10;;;19.47;99.24;99423.88;5223406;28;20626;-53
2023/09/21 05:02:02;;;;;;;3.25;1.40;;;19.10;99.10;;;19.46;99.21;99411.59;5233951;28;20041;-53
2023/09/21 05:04:35;;;;;;;2.35;1.27;;;19.10;99.20;;;19.46;99.22;99411.59;5215943;28;20061;-53
2023/09/21 05:07:07;;;;;;;3.47;1.30;;;19.20;99.20;;;19.47;99.19;99411.53;5224263;28;20041;-53
2023/09/21 05:09:40;;;;;;;2.63;1.35;;;19.20;99.20;;;19.50;99.14;99405.34;5229725;28;20065;-53
2023/09/21 05:12:12;;;;;;;3.10;1.40;;;19.20;99.50;;;19.51;99.10;99410.56;5222660;28;20052;-52
2023/09/21 05:14:47;;;;;;;2.90;1.40;;;19.10;99.20;;;19.54;99.13;99409.63;5238373;28;20049;-53
2023/09/21 05:17:21;;;;;;;2.75;1.42;;;19.20;99.20;;;19.53;99.14;99419.31;5222790;28;20036;-53
2023/09/21 05:19:53;;;;;;;2.53;1.13;;;19.20;99.20;;;19.59;99.00;99422.78;5225554;28;20044;-53
2023/09/21 05:22:26;;;;;;;2.00;1.10;;;19.20;99.20;;;19.59;99.02;99418.34;5219403;28;20049;-53
2023/09/21 05:24:59;;;;;;;4.90;1.50;;;19.20;99.20;;;19.60;99.07;99420.09;5236831;28;20041;-52
2023/09/21 05:27:31;;;;;;;2.05;1.10;;;19.30;99.20;;;19.62;99.10;99428.84;5222244;28;20036;-54
2023/09/21 05:30:08;;;;;;;2.50;1.23;;;19.30;99.20;;;19.63;99.18;99435.03;5225780;28;20045;-53
2023/09/21 05:32:41;;;;;;;3.33;1.20;;;19.30;99.30;;;19.58;99.39;99445.69;5229943;28;20052;-53
2023/09/21 05:35:16;;;;;;;2.05;1.20;;;19.30;99.30;;;19.58;99.45;99450.97;5218176;28;20040;-53
2023/09/21 05:37:49;;;;;;;1.80;1.30;;;19.30;99.60;;;19.58;99.67;99440.41;5217147;28;20060;-53
2023/09/21 05:40:21;;;;;;;3.22;1.20;;;19.30;99.30;;;19.59;99.58;99450.06;5225600;28;20044;-52
2023/09/21 05:42:53;;;;;;;2.88;1.50;;;19.30;99.40;;;19.59;99.65;99444.78;5220919;28;20542;-53
2023/09/21 05:45:27;;;;;;;2.80;1.30;;;19.20;99.40;;;19.59;99.79;99454.50;5218949;28;20053;-54
2023/09/21 05:47:59;;;;;;;2.33;1.33;;;19.20;99.50;;;19.58;100.00;99458.03;5233639;28;20508;-52
2023/09/21 05:50:32;;;;;;;2.17;1.20;;;19.30;99.50;;;19.56;100.00;99460.69;5218749;28;20064;-53
2023/09/21 05:53:05;;;;;;;1.92;1.20;;;19.20;99.50;;;19.56;100.00;99451.88;5238437;28;20143;-54
2023/09/21 05:55:38;;;;;;;3.15;1.27;;;19.20;99.60;;;19.56;100.00;99438.66;5218854;28;20056;-52
2023/09/21 05:58:10;;;;;;;2.42;1.40;;;19.20;99.70;;;19.57;100.00;99440.41;5225606;28;20041;-54
2023/09/21 06:00:44;;;;;;;2.00;1.20;;;19.20;99.70;;;19.60;100.00;99441.22;5223768;28;20068;-54
2023/09/21 06:03:17;;;;;;;2.88;1.40;;;19.30;99.80;;;19.62;100.00;99446.47;5220197;28;20049;-53
2023/09/21 06:05:50;;;;;;;1.48;0.98;;;19.30;99.80;;;19.64;100.00;99445.56;5235573;28;20057;-53
2023/09/21 06:08:22;;;;;;;3.22;1.70;;;19.30;99.80;;;19.70;100.00;99448.06;5222591;28;20380;-53
2023/09/21 06:10:56;;;;;;;2.72;1.33;;;19.30;99.80;;;19.95;100.00;99443.03;5224441;28;20508;-52
2023/09/21 06:13:29;;;;;;;;;;;19.50;99.90;;;20.07;99.66;99444.50;5218945;28;20120;-53
2023/09/21 06:16:02;;;;;;;4.43;1.48;;;19.60;99.70;;;20.42;98.65;99448.88;5231286;28;19921;-53
2023/09/21 06:18:35;;;;;;;2.10;1.15;;;19.90;99.60;;;20.50;97.70;99446.94;5218795;28;20128;-53
2023/09/21 06:21:07;;;;;;;2.20;1.25;;;20.00;99.20;;;21.03;96.92;99447.19;5225564;28;20102;-53
2023/09/21 06:23:41;;;;;;;2.33;1.30;;;20.30;99.30;;;21.90;94.65;99431.25;5231160;28;20049;-53
2023/09/21 06:26:15;;;;;;;2.53;1.40;;;20.90;98.80;;;22.78;91.54;99437.09;5227980;28;20040;-54
2023/09/21 06:28:48;;;;;;;2.38;1.10;;;21.70;97.90;;;23.51;88.35;99436.97;5232988;28;20136;-54
2023/09/21 06:31:25;;;;;;;2.20;1.10;;;22.40;96.80;;;24.16;85.41;99431.72;5216476;28;20045;-54
2023/09/21 06:33:59;;;;;;;2.80;1.20;;;23.10;95.50;;;24.68;83.17;99429.47;5233985;28;20060;-54
2023/09/21 06:36:33;;;;;;;5.45;1.65;;;23.70;94.50;;;24.90;80.76;99432.91;5221646;28;20561;-55
2023/09/21 06:39:08;;;;;;;2.78;1.40;;;24.00;93.30;;;25.26;80.08;99430.38;5225949;28;20103;-54
2023/09/21 06:41:40;;;;;;;3.03;1.50;;;24.30;93.00;;;25.42;79.72;99425.16;5232628;28;20523;-54
2023/09/21 06:44:14;;;;;;;2.28;1.30;;;24.60;92.60;;;25.38;78.78;99428.94;5225831;28;20043;-54
2023/09/21 06:46:49;;;;;;;2.45;1.38;;;24.70;92.00;;;25.20;79.37;99421.81;5224884;28;20040;-54
2023/09/21 06:49:22;;;;;;;4.15;1.40;;;24.60;91.90;;;25.21;80.21;99420.88;5217723;28;20057;-54
2023/09/21 06:51:56;;;;;;;2.65;1.40;;;24.60;92.10;;;25.16;80.09;99421.06;5237561;28;20111;-53
2023/09/21 06:54:29;;;;;;;3.35;1.45;;;24.60;92.00;;;25.10;79.96;99410.69;5219379;28;20045;-56
2023/09/21 06:57:04;;;;;;;1.55;1.13;;;24.50;91.90;;;25.14;80.44;99413.16;5221270;28;20049;-55
2023/09/21 06:59:38;;;;;;;2.78;1.17;;;24.60;92.00;;;25.13;79.55;99424.75;5222560;28;20047;-54
2023/09/21 07:02:11;;;;;;;3.15;1.20;;;24.60;91.60;;;25.01;80.58;99421.75;5230182;28;20442;-54
2023/09/21 07:04:44;;;;;;;2.22;1.33;;;24.50;91.80;;;24.89;80.78;99417.84;5225940;28;20056;-54
2023/09/21 07:07:16;;;;;;;2.13;1.27;;;24.40;91.80;;;24.95;81.53;99422.03;5236270;28;20411;-55
2023/09/21 07:09:49;;;;;;;2.83;1.15;;;24.40;92.10;;;25.03;81.38;99423.41;5239379;28;20416;-55
2023/09/21 07:12:21;;;;;;;2.00;1.25;;;24.40;92.10;;;25.07;80.93;99421.50;5234429;28;20045;-53
2023/09/21 07:14:54;;;;;;;2.03;1.20;;;24.50;91.90;;;25.01;81.19;99422.63;5236985;28;20057;-54
2023/09/21 07:17:33;;;;;;;4.45;1.48;;;24.40;92.00;;;24.97;81.39;99418.34;5225064;28;20041;-54
2023/09/21 07:20:07;;;;;;;1.65;1.10;;;24.40;92.10;;;24.86;81.73;99423.31;5236146;28;20044;-53
2023/09/21 07:22:40;;;;;;;1.40;1.10;;;24.40;92.20;;;24.68;82.27;99418.81;5234757;28;20424;-55
2023/09/21 07:25:12;;;;;;;3.25;1.40;;;24.20;92.20;;;24.44;83.04;99416.28;5239888;28;20045;-55
2023/09/21 07:27:45;;;;;;;3.05;1.20;;;24.00;92.40;;;24.13;84.03;99419.41;5229231;28;20459;-54
2023/09/21 07:30:17;;;;;;;1.85;1.23;;;23.70;92.60;;;23.72;85.56;99416.66;5236863;28;20037;-54
2023/09/21 07:32:51;;;;;;;2.60;1.38;;;23.40;93.20;;;23.42;86.82;99429.38;5225337;28;20044;-55
2023/09/21 07:35:26;;;;;;;1.90;1.15;;;23.10;93.60;;;23.16;87.94;99438.34;5224589;28;20049;-54
2023/09/21 07:37:59;;;;;;;2.47;1.10;;;22.90;94.10;;;22.91;88.78;99429.56;5234518;28;20056;-53
2023/09/21 07:40:31;;;;;;;2.70;1.30;;;22.60;94.40;;;22.73;89.78;99431.06;5219403;28;20045;-53
2023/09/21 07:43:04;;;;;;;2.88;1.30;;;22.40;94.90;;;22.60;90.76;99432.44;5229980;28;20041;-54
2023/09/21 07:45:36;;;;;;;1.73;1.02;;;22.30;95.30;;;22.49;91.49;99424.84;5214758;28;20049;-53
2023/09/21 07:48:10;;;;;;;3.40;1.20;;;22.20;95.60;;;22.36;92.55;99424.41;5230197;28;20056;-54
2023/09/21 07:50:43;;;;;;;2.55;1.40;;;22.00;95.90;;;22.29;92.74;99420.25;5227925;28;20041;-54
2023/09/21 07:53:15;;;;;;;2.30;1.35;;;21.90;96.10;;;22.27;93.28;99415.91;5230107;28;20037;-53
2023/09/21 07:55:48;;;;;;;3.42;1.60;;;21.80;96.20;;;22.28;93.46;99415.00;5218865;28;20134;-54
2023/09/21 07:58:21;;;;;;;3.63;1.30;;;21.80;96.50;;;22.35;93.78;99422.69;5224183;28;20033;-53
2023/09/21 08:00:56;;;;;;;2.63;1.23;;;21.80;96.70;;;22.33;93.87;99416.56;5223796;28;20044;-54
2023/09/21 08:03:33;;;;;;;2.65;1.30;;;21.80;96.70;;;22.30;94.31;99419.34;5219974;28;20044;-54
2023/09/21 08:06:07;;;;;;;2.20;1.30;;;21.80;96.90;;;22.26;94.79;99412.41;5237315;28;20488;-54
2023/09/21 08:08:39;;;;;;;2.63;1.17;;;21.80;97.10;;;22.22;95.09;99421.38;5224047;28;20052;-53
2023/09/21 08:11:12;;;;;;;3.65;1.48;;;21.80;97.10;;;22.21;95.24;99425.81;5227126;28;20059;-55
2023/09/21 08:13:45;;;;;;;1.40;1.20;;;21.80;97.20;;;22.24;95.56;99424.88;5222505;28;20057;-55
2023/09/21 08:16:17;;;;;;;2.90;1.10;;;21.80;97.30;;;22.26;95.83;99416.84;5226897;28;20045;-54
2023/09/21 08:18:52;;;;;;;2.20;1.50;;;21.80;97.50;;;22.23;95.74;99412.47;5228061;28;20048;-54
2023/09/21 08:21:27;;;;;;;2.05;1.23;;;21.80;97.50;;;22.21;96.12;99411.69;5230462;28;20090;-54
2023/09/21 08:23:59;;;;;;;1.75;1.13;;;21.80;97.60;;;22.18;96.43;99417.13;5226522;28;20053;-54
2023/09/21 08:26:32;;;;;;;4.13;1.70;;;21.80;97.70;;;22.14;97.23;99412.81;5223562;28;20041;-53
2023/09/21 08:29:05;;;;;;;5.18;1.50;;;21.80;98.00;;;22.08;97.59;99415.66;5230468;28;20076;-54
2023/09/21 08:31:41;;;;;;;2.20;1.35;;;21.70;98.10;;;22.06;97.41;99420.16;5233196;28;20411;-54
2023/09/21 08:34:19;;;;;;;2.90;1.52;;;21.70;98.00;;;22.08;97.64;99415.66;5233566;28;20398;-54
2023/09/21 08:36:51;;;;;;;3.08;1.30;;;21.70;98.10;;;22.06;98.09;99420.16;5231665;28;20136;-54
2023/09/21 08:39:24;;;;;;;2.17;1.25;;;21.60;98.30;;;22.08;98.16;99416.50;5233751;28;20048;-53
2023/09/21 08:41:57;;;;;;;2.70;1.20;;;21.70;98.60;;;22.10;98.04;99421.78;5239299;28;20480;-54
2023/09/21 08:44:30;;;;;;;4.63;1.42;;;21.70;98.40;;;22.12;98.02;99412.88;5232187;28;20534;-55
2023/09/21 08:47:03;;;;;;;5.05;1.52;;;21.70;98.40;;;22.12;97.92;99419.97;5219847;28;20041;-53
2023/09/21 08:49:41;;;;;;;2.50;1.20;;;21.60;98.40;;;22.11;98.44;99418.25;5213640;28;20053;-53
2023/09/21 08:52:15;;;;;;;1.40;1.20;;;21.60;98.50;;;22.11;98.66;99412.94;5230223;28;20140;-54
2023/09/21 08:54:48;;;;;;;4.72;1.63;;;21.70;98.70;;;22.13;98.86;99422.56;5222646;28;20498;-54
2023/09/21 08:57:20;;;;;;;3.53;1.40;;;21.70;98.70;;;22.15;99.07;99425.16;5228291;28;20095;-56
2023/09/21 08:59:57;;;;;;;1.67;1.02;;;21.70;98.90;;;22.23;98.92;99423.09;5235037;28;20053;-54
2023/09/21 09:02:29;;;;;;;2.22;1.25;;;21.70;98.90;;;22.37;98.80;99418.22;5222049;28;20037;-55
2023/09/21 09:05:06;;;;;;;3.70;1.48;;;21.80;98.90;;;22.46;98.14;99423.19;5215766;28;20049;-54
2023/09/21 09:07:39;;;;;;;3.20;1.42;;;21.90;98.70;;;22.62;97.70;99435.91;5217606;28;20132;-54
2023/09/21 09:10:14;;;;;;;4.05;1.50;;;22.00;98.60;;;22.67;97.35;99425.97;5226027;28;20144;-54
2023/09/21 09:12:49;;;;;;;3.83;1.15;;;22.10;98.40;;;22.64;97.32;99428.75;5233932;28;20055;-54
2023/09/21 09:15:34;;;;;;;2.50;1.27;;;22.10;98.40;;;22.59;97.64;99428.91;5232624;28;20041;-54
2023/09/21 09:18:08;;;;;;;2.03;1.27;;;22.10;98.30;;;22.56;97.47;99434.34;5215095;28;20052;-54
2023/09/21 09:20:44;;;;;;;2.28;1.30;;;22.10;98.30;;;22.57;97.83;99438.75;5232821;28;20489;-54
2023/09/21 09:23:17;;;;;;;4.72;1.70;;;22.10;98.40;;;22.56;97.95;99426.38;5237287;28;20052;-54
2023/09/21 09:25:54;;;;;;;5.43;1.40;;;22.10;98.50;;;22.56;97.79;99425.50;5235751;28;20057;-54
2023/09/21 09:28:26;;;;;;;3.17;1.27;;;22.10;98.50;;;22.56;97.96;99428.16;5239059;28;20425;-55
2023/09/21 09:30:59;;;;;;;3.13;1.38;;;22.10;98.50;;;22.60;97.85;99416.50;5225825;28;20057;-55
2023/09/21 09:33:33;;;;;;;3.08;1.30;;;22.10;98.50;;;22.62;98.00;99417.31;5221760;28;20049;-54
2023/09/21 09:36:07;;;;;;;3.78;1.52;;;22.10;98.60;;;22.63;98.45;99424.38;5230283;28;20041;-54
2023/09/21 09:38:40;;;;;;;2.42;1.25;;;22.10;98.70;;;22.66;98.38;99426.91;5229807;28;20040;-55
2023/09/21 09:41:14;;;;;;;3.88;1.67;;;22.10;98.70;;;22.66;98.27;99422.47;5230493;28;20064;-54
2023/09/21 09:43:51;;;;;;;3.30;1.30;;;22.10;98.70;;;22.72;98.40;99424.03;5220344;28;20041;-54
2023/09/21 09:46:24;;;;;;;5.78;1.80;;;22.10;98.80;;;22.73;98.79;99405.38;5219621;28;20052;-54
2023/09/21 09:49:02;;;;;;;2.45;1.40;;;22.20;98.90;;;22.77;98.83;99408.81;5234603;28;20056;-54
2023/09/21 09:51:44;;;;;;;2.40;1.13;;;22.20;98.90;;;22.82;98.63;99412.16;5212177;28;20407;-54
2023/09/21 09:54:18;;;;;;;3.95;1.48;;;22.20;98.90;;;22.86;98.44;99411.13;5229440;28;20045;-54
2023/09/21 09:56:52;;;;;;;2.28;1.30;;;22.30;98.90;;;22.91;98.58;99411.84;5220535;28;20123;-54
2023/09/21 09:59:26;;;;;;;2.45;1.20;;;22.30;98.90;;;22.94;98.29;99414.38;5227868;28;20032;-54
2023/09/21 10:02:00;;;;;;;2.72;1.30;;;22.40;98.90;;;22.96;98.76;99411.69;5218690;28;20053;-54
2023/09/21 10:04:36;;;;;;;4.90;1.42;;;22.40;98.90;;;22.93;98.60;99404.66;5226404;28;20037;-54
2023/09/21 10:07:10;;;;;;;3.00;1.55;;;22.40;98.90;;;22.96;98.42;99404.56;5230200;28;20045;-54
2023/09/21 10:09:43;;;;;;;3.03;1.40;;;22.40;98.80;;;23.02;98.75;99395.50;5230069;28;20041;-54
2023/09/21 10:12:19;;;;;;;2.10;1.35;;;22.50;98.90;;;23.04;97.86;99390.97;5238390;28;20056;-54
2023/09/21 10:14:51;;;;;;;2.45;1.38;;;22.50;98.80;;;23.08;98.01;99397.88;5220845;28;20047;-53
2023/09/21 10:17:27;;;;;;;3.25;1.40;;;22.50;98.70;;;23.12;97.79;99404.84;5228162;28;20602;-54
2023/09/21 10:20:14;;;;;;;2.50;1.20;;;22.50;98.70;;;23.11;97.99;99397.78;5231116;28;20049;-54
2023/09/21 10:22:48;;;;;;;;;;;22.60;98.70;;;23.07;98.44;99390.00;5219225;28;20132;-54
2023/09/21 10:25:39;;;;;;;2.00;1.33;;;22.50;98.80;;;23.07;98.36;99390.84;5220783;28;20410;-55
2023/09/21 10:28:39;;;;;;;2.83;1.50;;;22.60;98.80;;;23.12;98.79;99374.75;5212507;28;20034;-54
2023/09/21 10:31:24;;;;;;;2.35;1.40;;;22.60;98.90;;;23.18;98.86;99375.38;5190004;28;20045;-54
2023/09/21 10:34:14;;;;;;;2.35;1.33;;;22.60;99.20;;;23.23;98.46;99364.56;5235343;28;20412;-54
2023/09/21 10:36:50;;;;;;;2.88;1.38;;;22.60;98.90;;;23.25;98.30;99366.22;5235779;28;20052;-54
2023/09/21 10:39:31;;;;;;;2.03;1.30;;;22.70;98.80;;;23.29;98.25;99359.88;5237009;28;20049;-54
2023/09/21 10:42:40;;;;;;;3.00;1.35;;;22.70;98.90;;;23.30;97.86;99355.41;5217198;28;20420;-54
2023/09/21 10:45:13;;;;;;;3.13;1.60;;;22.70;98.80;;;23.29;97.58;99354.53;5219005;28;20072;-54
2023/09/21 10:47:51;;;;;;;1.75;1.17;;;22.70;98.60;;;23.28;97.73;99357.28;5225839;28;20048;-54